Time;durP1;ratioP1;P1;durP2;ratioP2;P2;SDS_P1;SDS_P2;PMS_P1;PMS_P2;Temp;Humidity;BMP_temperature;BMP_pressure;BME280_temperature;BME280_humidity;BME280_pressure;Samples;Min_cycle;Max_cycle;Signal;HPM_P1;HPM_P2
2021/07/24 00:02:16;;;;;;;9.40;3.08;;;;;;;;;;5053641;28;20144;-76
2021/07/24 00:04:42;;;;;;;9.70;3.13;;;;;;;;;;5053928;28;20100;-75
2021/07/24 00:07:08;;;;;;;9.45;3.45;;;;;;;;;;5053604;28;20393;-76
2021/07/24 00:09:34;;;;;;;8.52;3.25;;;;;;;;;;5053415;28;20045;-75
2021/07/24 00:12:00;;;;;;;9.60;3.15;;;;;;;;;;5053704;28;20036;-73
2021/07/24 00:14:26;;;;;;;8.65;3.17;;;;;;;;;;5053470;28;20539;-76
2021/07/24 00:16:52;;;;;;;7.85;3.25;;;;;;;;;;5053429;28;20025;-73
2021/07/24 00:19:18;;;;;;;7.45;3.10;;;;;;;;;;5053404;28;20071;-77
2021/07/24 00:21:44;;;;;;;8.20;3.17;;;;;;;;;;5053332;28;20386;-77
2021/07/24 00:24:10;;;;;;;6.68;2.85;;;;;;;;;;5053641;28;20048;-76
2021/07/24 00:26:36;;;;;;;13.43;3.50;;;;;;;;;;5053287;28;20416;-75
2021/07/24 00:29:05;;;;;;;7.00;2.67;;;;;;;;;;5053251;28;20020;-73
2021/07/24 00:31:31;;;;;;;8.03;3.00;;;;;;;;;;5053800;28;20028;-74
2021/07/24 00:33:57;;;;;;;12.02;3.53;;;;;;;;;;5053690;28;20029;-74
2021/07/24 00:36:24;;;;;;;9.82;3.55;;;;;;;;;;5053480;28;20021;-76
2021/07/24 00:38:50;;;;;;;7.82;2.70;;;;;;;;;;5053174;28;20519;-76
2021/07/24 00:41:20;;;;;;;9.63;3.15;;;;;;;;;;5053138;28;20045;-73
2021/07/24 00:43:47;;;;;;;9.73;4.30;;;;;;;;;;5053486;28;20420;-76
2021/07/24 00:46:14;;;;;;;7.30;2.95;;;;;;;;;;5053072;28;20025;-77
2021/07/24 00:48:41;;;;;;;8.32;3.70;;;;;;;;;;5056051;28;20060;-74
2021/07/24 00:51:07;;;;;;;9.52;3.90;;;;;;;;;;5060024;28;20036;-75
2021/07/24 00:53:34;;;;;;;11.07;4.03;;;;;;;;;;5060050;28;20040;-76
2021/07/24 00:56:01;;;;;;;8.75;3.60;;;;;;;;;;5059734;28;20024;-75
2021/07/24 00:58:28;;;;;;;10.63;4.10;;;;;;;;;;5059940;28;20362;-76
2021/07/24 01:00:55;;;;;;;10.68;4.05;;;;;;;;;;5059873;28;20055;-74
2021/07/24 01:03:21;;;;;;;8.60;4.00;;;;;;;;;;5059573;28;20025;-75
2021/07/24 01:05:49;;;;;;;9.02;3.97;;;;;;;;;;5059559;28;20048;-76
2021/07/24 01:08:15;;;;;;;8.57;3.88;;;;;;;;;;5059548;28;20432;-77
2021/07/24 01:10:41;;;;;;;8.77;4.10;;;;;;;;;;5059159;28;20136;-77
2021/07/24 01:13:07;;;;;;;8.40;3.88;;;;;;;;;;5059418;28;20112;-74
2021/07/24 01:15:33;;;;;;;11.10;4.15;;;;;;;;;;5059485;28;20108;-75
2021/07/24 01:17:59;;;;;;;13.30;4.18;;;;;;;;;;5059464;28;20057;-76
2021/07/24 01:20:25;;;;;;;10.40;3.85;;;;;;;;;;5059744;28;20377;-74
2021/07/24 01:22:52;;;;;;;10.63;4.45;;;;;;;;;;5059716;28;20057;-73
2021/07/24 01:25:18;;;;;;;7.07;4.10;;;;;;;;;;5059960;28;20021;-76
2021/07/24 01:27:45;;;;;;;11.43;5.32;;;;;;;;;;5041412;28;20044;-76
2021/07/24 01:30:12;;;;;;;9.93;5.18;;;;;;;;;;5059693;28;20021;-74
2021/07/24 01:32:38;;;;;;;10.13;4.90;;;;;;;;;;5059835;28;20104;-75
2021/07/24 01:35:05;;;;;;;10.30;5.00;;;;;;;;;;5059360;28;20052;-77
2021/07/24 01:37:31;;;;;;;10.45;5.10;;;;;;;;;;5059280;28;20017;-74
2021/07/24 01:39:58;;;;;;;10.93;5.05;;;;;;;;;;5059539;28;20048;-73
2021/07/24 01:42:24;;;;;;;15.07;5.68;;;;;;;;;;5059330;28;20055;-75
2021/07/24 01:44:50;;;;;;;10.13;4.80;;;;;;;;;;5059278;28;20028;-75
2021/07/24 01:47:16;;;;;;;9.23;5.00;;;;;;;;;;5059233;28;20536;-75
2021/07/24 01:55:13;;;;;;;13.13;5.20;;;;;;;;;;5059378;28;20472;-77
2021/07/24 01:57:42;;;;;;;9.98;5.65;;;;;;;;;;5059164;28;20025;-77
2021/07/24 02:00:09;;;;;;;9.30;5.22;;;;;;;;;;5056603;28;20370;-77
2021/07/24 02:02:36;;;;;;;10.75;4.80;;;;;;;;;;5055938;28;20478;-79
2021/07/24 02:05:03;;;;;;;11.25;5.30;;;;;;;;;;5056222;28;20035;-75
2021/07/24 02:07:29;;;;;;;13.10;6.05;;;;;;;;;;5056176;28;20063;-75
2021/07/24 02:09:55;;;;;;;13.02;5.72;;;;;;;;;;5055641;28;20079;-74
2021/07/24 02:12:21;;;;;;;12.55;5.95;;;;;;;;;;5055977;28;20021;-76
2021/07/24 02:14:47;;;;;;;11.27;5.40;;;;;;;;;;5056045;28;20028;-75
2021/07/24 02:17:13;;;;;;;13.43;5.78;;;;;;;;;;5055718;28;20017;-74
2021/07/24 02:19:40;;;;;;;13.63;6.00;;;;;;;;;;5055887;28;20025;-74
2021/07/24 02:22:06;;;;;;;10.60;5.57;;;;;;;;;;5055622;28;20032;-76
2021/07/24 02:24:32;;;;;;;10.65;5.80;;;;;;;;;;5055548;28;20025;-74
2021/07/24 02:26:58;;;;;;;10.10;5.07;;;;;;;;;;5055502;28;20436;-76
2021/07/24 02:29:24;;;;;;;12.80;6.20;;;;;;;;;;5055475;28;20044;-73
2021/07/24 02:31:50;;;;;;;11.43;5.53;;;;;;;;;;5055345;28;20021;-77
2021/07/24 02:34:16;;;;;;;10.57;5.40;;;;;;;;;;5055375;28;20469;-77
2021/07/24 02:36:42;;;;;;;12.85;5.88;;;;;;;;;;5055572;28;20021;-76
2021/07/24 02:39:08;;;;;;;13.32;6.43;;;;;;;;;;5055256;28;20523;-74
2021/07/24 02:41:34;;;;;;;13.27;5.93;;;;;;;;;;5055249;28;20048;-76
2021/07/24 02:44:00;;;;;;;8.50;4.60;;;;;;;;;;5055227;28;20029;-74
2021/07/24 02:46:26;;;;;;;11.48;5.18;;;;;;;;;;5055151;28;20519;-75
2021/07/24 02:48:51;;;;;;;10.43;4.82;;;;;;;;;;5055113;28;20032;-77
2021/07/24 02:51:17;;;;;;;10.93;4.85;;;;;;;;;;5055039;28;20497;-77
2021/07/24 02:53:43;;;;;;;8.25;4.80;;;;;;;;;;5055108;28;20055;-75
2021/07/24 02:56:09;;;;;;;9.63;4.88;;;;;;;;;;5055003;28;20405;-73
2021/07/24 02:58:35;;;;;;;8.00;4.55;;;;;;;;;;5054976;28;20025;-72
2021/07/24 03:01:08;;;;;;;10.43;4.57;;;;;;;;;;5054880;28;20075;-76
2021/07/24 03:03:35;;;;;;;10.55;4.68;;;;;;;;;;5054823;28;20036;-75
2021/07/24 03:06:01;;;;;;;10.75;4.50;;;;;;;;;;5055071;28;20021;-76
2021/07/24 03:08:27;;;;;;;9.52;4.80;;;;;;;;;;5054687;28;20028;-76
2021/07/24 03:10:53;;;;;;;9.35;4.32;;;;;;;;;;5054271;28;20061;-73
2021/07/24 03:13:19;;;;;;;8.50;4.25;;;;;;;;;;5054406;28;20436;-76
2021/07/24 03:15:46;;;;;;;8.07;4.35;;;;;;;;;;5055132;28;20021;-76
2021/07/24 03:18:13;;;;;;;7.25;4.05;;;;;;;;;;5054762;28;20045;-74
2021/07/24 03:20:39;;;;;;;10.63;4.47;;;;;;;;;;5054485;28;20021;-75
2021/07/24 03:23:05;;;;;;;10.18;4.82;;;;;;;;;;5054433;28;20037;-74
2021/07/24 03:25:31;;;;;;;10.88;4.78;;;;;;;;;;5054361;28;20108;-78
2021/07/24 03:27:57;;;;;;;7.97;4.15;;;;;;;;;;5054891;28;20121;-73
2021/07/24 03:30:23;;;;;;;11.23;4.82;;;;;;;;;;5054330;28;20025;-76
2021/07/24 03:32:49;;;;;;;10.23;4.55;;;;;;;;;;5054480;28;20086;-76
2021/07/24 03:35:15;;;;;;;9.40;4.50;;;;;;;;;;5054185;28;20025;-74
2021/07/24 03:37:41;;;;;;;7.25;4.10;;;;;;;;;;5054137;28;20462;-76
2021/07/24 03:40:07;;;;;;;7.70;4.25;;;;;;;;;;5054348;28;20074;-73
2021/07/24 03:42:33;;;;;;;9.00;4.57;;;;;;;;;;5054287;28;20386;-75
2021/07/24 03:44:59;;;;;;;10.25;4.60;;;;;;;;;;5053991;28;20021;-75
2021/07/24 03:47:25;;;;;;;6.82;4.05;;;;;;;;;;5053962;28;20036;-76
2021/07/24 03:49:51;;;;;;;8.70;4.03;;;;;;;;;;5053926;28;20093;-78
2021/07/24 03:52:17;;;;;;;11.25;3.78;;;;;;;;;;5054111;28;20025;-75
2021/07/24 03:54:43;;;;;;;10.88;4.65;;;;;;;;;;5053786;28;20036;-75
2021/07/24 03:57:09;;;;;;;10.82;4.07;;;;;;;;;;5053825;28;20462;-77
2021/07/24 03:59:35;;;;;;;9.07;4.50;;;;;;;;;;5053774;28;20079;-74
2021/07/24 04:02:01;;;;;;;11.98;4.25;;;;;;;;;;5054007;28;20071;-77
2021/07/24 04:04:27;;;;;;;10.68;4.10;;;;;;;;;;5053966;28;20104;-74
2021/07/24 04:06:54;;;;;;;8.90;3.88;;;;;;;;;;5053665;28;20096;-73
2021/07/24 04:09:20;;;;;;;10.77;4.53;;;;;;;;;;5053572;28;20408;-75
2021/07/24 04:11:47;;;;;;;12.68;4.13;;;;;;;;;;5053831;28;20031;-77
2021/07/24 04:14:14;;;;;;;12.40;4.78;;;;;;;;;;5053545;28;20033;-74
2021/07/24 04:16:40;;;;;;;9.75;4.50;;;;;;;;;;5053488;28;20021;-75
2021/07/24 04:19:06;;;;;;;12.02;4.38;;;;;;;;;;5053701;28;20074;-72
2021/07/24 04:21:32;;;;;;;13.07;4.82;;;;;;;;;;5053657;28;20052;-76
2021/07/24 04:23:58;;;;;;;14.50;5.10;;;;;;;;;;5052691;28;20021;-74
2021/07/24 04:26:24;;;;;;;9.27;4.38;;;;;;;;;;5053618;28;20029;-76
2021/07/24 04:28:50;;;;;;;8.77;4.47;;;;;;;;;;5053606;28;20017;-75
2021/07/24 04:31:16;;;;;;;9.88;4.95;;;;;;;;;;5053313;28;20036;-75
2021/07/24 04:33:43;;;;;;;12.10;4.50;;;;;;;;;;5053260;28;20052;-73
2021/07/24 04:36:12;;;;;;;9.73;4.65;;;;;;;;;;5053226;28;20036;-75
2021/07/24 04:38:38;;;;;;;10.68;5.30;;;;;;;;;;5053243;28;20025;-77
2021/07/24 04:41:04;;;;;;;13.85;5.25;;;;;;;;;;5053412;28;20048;-76
2021/07/24 04:43:30;;;;;;;10.80;4.70;;;;;;;;;;5053082;28;20436;-74
2021/07/24 04:45:56;;;;;;;12.00;4.65;;;;;;;;;;5053372;28;20075;-77
2021/07/24 04:48:22;;;;;;;10.20;4.72;;;;;;;;;;5053119;28;20025;-74
2021/07/24 04:50:53;;;;;;;11.35;4.55;;;;;;;;;;5053354;28;20025;-75
2021/07/24 04:53:20;;;;;;;10.00;4.78;;;;;;;;;;5053285;28;20029;-78
2021/07/24 04:55:46;;;;;;;9.80;4.72;;;;;;;;;;5053542;28;20025;-76
2021/07/24 04:58:12;;;;;;;11.45;4.85;;;;;;;;;;5053029;28;20025;-75
2021/07/24 05:00:39;;;;;;;12.68;4.80;;;;;;;;;;5053030;28;20036;-74
2021/07/24 05:03:05;;;;;;;10.73;4.90;;;;;;;;;;5052878;28;20078;-74
2021/07/24 05:05:31;;;;;;;11.30;4.70;;;;;;;;;;5053181;28;20102;-74
2021/07/24 05:07:57;;;;;;;9.35;4.40;;;;;;;;;;5035052;28;20025;-74
2021/07/24 05:10:23;;;;;;;7.90;4.38;;;;;;;;;;5052545;28;20456;-76
2021/07/24 05:12:49;;;;;;;10.35;4.25;;;;;;;;;;5052866;28;20028;-77
2021/07/24 05:15:15;;;;;;;7.28;3.72;;;;;;;;;;5053107;28;20078;-73
2021/07/24 05:17:41;;;;;;;9.23;4.07;;;;;;;;;;5053081;28;20082;-76
2021/07/24 05:20:08;;;;;;;9.27;4.20;;;;;;;;;;5052781;28;20370;-76
2021/07/24 05:22:34;;;;;;;10.70;4.78;;;;;;;;;;5052710;28;20025;-75
2021/07/24 05:25:00;;;;;;;11.23;4.65;;;;;;;;;;5052751;28;20029;-75
2021/07/24 05:27:26;;;;;;;9.40;4.57;;;;;;;;;;5052683;28;20028;-76
2021/07/24 05:29:52;;;;;;;10.05;4.70;;;;;;;;;;5052947;28;20029;-73
2021/07/24 05:32:18;;;;;;;8.48;4.30;;;;;;;;;;5052662;28;20024;-75
2021/07/24 05:34:44;;;;;;;9.00;4.05;;;;;;;;;;5053809;28;20485;-76
2021/07/24 05:37:10;;;;;;;9.32;3.85;;;;;;;;;;5056478;28;20021;-74
2021/07/24 05:39:36;;;;;;;9.88;4.53;;;;;;;;;;5056669;28;20037;-76
2021/07/24 05:42:02;;;;;;;7.13;4.10;;;;;;;;;;5056301;28;20076;-75
2021/07/24 05:44:28;;;;;;;8.75;4.35;;;;;;;;;;5056339;28;20104;-74
2021/07/24 05:46:54;;;;;;;8.75;3.75;;;;;;;;;;5056280;28;20056;-76
2021/07/24 05:49:20;;;;;;;10.98;4.85;;;;;;;;;;5056277;28;20031;-76
2021/07/24 05:51:46;;;;;;;7.82;4.15;;;;;;;;;;5056114;28;20020;-75
2021/07/24 05:54:13;;;;;;;9.98;4.32;;;;;;;;;;5056090;28;20029;-76
2021/07/24 05:56:39;;;;;;;9.27;3.65;;;;;;;;;;5056393;28;20071;-74
2021/07/24 05:59:05;;;;;;;7.57;3.50;;;;;;;;;;5056032;28;20119;-78
2021/07/24 06:01:31;;;;;;;7.80;3.60;;;;;;;;;;5056031;28;20056;-75
2021/07/24 06:03:57;;;;;;;6.93;2.90;;;;;;;;;;5055922;28;20025;-74
2021/07/24 06:06:23;;;;;;;6.43;3.00;;;;;;;;;;5055921;28;20470;-77
2021/07/24 06:08:49;;;;;;;10.13;3.00;;;;;;;;;;5055668;28;20061;-76
2021/07/24 06:11:15;;;;;;;7.95;3.30;;;;;;;;;;5056124;28;20083;-77
2021/07/24 06:13:41;;;;;;;6.10;3.20;;;;;;;;;;5055795;28;20029;-75
2021/07/24 06:16:10;;;;;;;4.40;2.63;;;;;;;;;;5055687;28;20029;-76
2021/07/24 06:18:36;;;;;;;5.45;2.70;;;;;;;;;;5055727;28;20033;-78
2021/07/24 06:21:02;;;;;;;5.55;2.78;;;;;;;;;;5055935;28;20052;-74
2021/07/24 06:23:28;;;;;;;6.05;2.42;;;;;;;;;;5055771;28;20488;-76
2021/07/24 06:25:55;;;;;;;4.82;2.13;;;;;;;;;;5055528;28;20064;-76
2021/07/24 06:28:23;;;;;;;4.50;2.42;;;;;;;;;;5055817;28;20166;-75
2021/07/24 06:30:49;;;;;;;4.57;2.30;;;;;;;;;;5037596;28;20380;-75
2021/07/24 06:33:15;;;;;;;5.72;2.45;;;;;;;;;;5055414;28;20025;-76
2021/07/24 06:35:42;;;;;;;6.05;2.33;;;;;;;;;;5055687;28;20029;-77
2021/07/24 06:38:09;;;;;;;5.18;2.40;;;;;;;;;;5055642;28;20024;-75
2021/07/24 06:40:35;;;;;;;5.85;2.30;;;;;;;;;;5055345;28;20033;-75
2021/07/24 06:43:01;;;;;;;4.00;2.13;;;;;;;;;;5055219;28;20032;-76
2021/07/24 06:45:27;;;;;;;6.05;2.28;;;;;;;;;;5055167;28;20535;-75
2021/07/24 06:47:53;;;;;;;4.05;2.30;;;;;;;;;;5054752;28;20021;-73
2021/07/24 06:50:23;;;;;;;6.30;2.22;;;;;;;;;;5055093;28;20025;-76
2021/07/24 06:52:49;;;;;;;7.85;2.78;;;;;;;;;;5038095;28;20355;-76
2021/07/24 06:55:15;;;;;;;5.13;2.47;;;;;;;;;;5054922;28;20032;-76
2021/07/24 06:57:41;;;;;;;6.55;2.38;;;;;;;;;;5054993;28;20035;-77
2021/07/24 07:00:07;;;;;;;4.20;2.30;;;;;;;;;;5055141;28;20160;-73
2021/07/24 07:02:33;;;;;;;5.93;2.22;;;;;;;;;;5055381;28;20032;-75
2021/07/24 07:04:59;;;;;;;6.07;2.35;;;;;;;;;;5054857;28;20021;-73
2021/07/24 07:07:25;;;;;;;4.95;2.20;;;;;;;;;;5054784;28;20363;-75
2021/07/24 07:09:51;;;;;;;5.43;2.50;;;;;;;;;;5054661;28;20115;-74
2021/07/24 07:12:17;;;;;;;5.85;2.15;;;;;;;;;;5054657;28;20392;-75
2021/07/24 07:14:43;;;;;;;3.55;1.98;;;;;;;;;;5054600;28;20021;-77
2021/07/24 07:17:09;;;;;;;5.03;1.80;;;;;;;;;;5054551;28;20420;-76
2021/07/24 07:19:36;;;;;;;4.28;2.15;;;;;;;;;;5054482;28;20025;-75
2021/07/24 07:22:03;;;;;;;4.50;2.17;;;;;;;;;;5054388;28;20021;-76
2021/07/24 07:24:29;;;;;;;3.85;2.10;;;;;;;;;;5054425;28;20021;-75
2021/07/24 07:26:55;;;;;;;5.10;1.98;;;;;;;;;;5054365;28;20024;-77
2021/07/24 07:29:21;;;;;;;5.22;2.05;;;;;;;;;;5054294;28;20021;-74
2021/07/24 07:31:47;;;;;;;4.60;1.98;;;;;;;;;;5054521;28;20078;-74
2021/07/24 07:34:13;;;;;;;5.55;1.88;;;;;;;;;;5054167;28;20028;-76
2021/07/24 07:36:39;;;;;;;4.65;2.20;;;;;;;;;;5054442;28;20040;-76
2021/07/24 07:39:05;;;;;;;2.88;1.60;;;;;;;;;;5054382;28;20058;-74
2021/07/24 07:41:31;;;;;;;3.47;1.90;;;;;;;;;;5054069;28;20114;-75
2021/07/24 07:43:57;;;;;;;6.78;1.85;;;;;;;;;;5054198;28;20028;-75
2021/07/24 07:46:23;;;;;;;6.45;2.35;;;;;;;;;;5054280;28;20029;-74
2021/07/24 07:48:49;;;;;;;4.68;2.30;;;;;;;;;;5053997;28;20049;-75
2021/07/24 07:51:15;;;;;;;5.30;2.35;;;;;;;;;;5053898;28;20065;-76
2021/07/24 07:53:41;;;;;;;6.43;2.25;;;;;;;;;;5053833;28;20028;-76
2021/07/24 07:56:11;;;;;;;4.07;2.05;;;;;;;;;;5053890;28;20033;-74
2021/07/24 07:58:37;;;;;;;5.07;1.88;;;;;;;;;;5053393;28;20025;-75
2021/07/24 08:01:10;;;;;;;6.90;2.00;;;;;;;;;;5054049;28;20104;-74
2021/07/24 08:03:36;;;;;;;4.25;1.95;;;;;;;;;;5054003;28;20021;-75
2021/07/24 08:06:02;;;;;;;6.47;2.08;;;;;;;;;;5053665;28;20025;-76
2021/07/24 08:08:28;;;;;;;4.13;2.05;;;;;;;;;;5053638;28;20100;-73
2021/07/24 08:10:54;;;;;;;3.45;1.80;;;;;;;;;;5053569;28;20116;-77
2021/07/24 08:13:21;;;;;;;3.50;1.85;;;;;;;;;;5053803;28;20107;-74
2021/07/24 08:15:50;;;;;;;4.78;1.38;;;;;;;;;;5053568;28;20017;-75
2021/07/24 08:18:16;;;;;;;3.60;1.60;;;;;;;;;;5053501;28;20043;-77
2021/07/24 08:20:44;;;;;;;3.70;1.67;;;;;;;;;;5053463;28;20477;-75
2021/07/24 08:23:10;;;;;;;3.22;1.90;;;;;;;;;;5053359;28;20071;-75
2021/07/24 08:25:37;;;;;;;4.20;1.83;;;;;;;;;;5053962;28;20059;-73
2021/07/24 08:28:03;;;;;;;3.08;1.95;;;;;;;;;;5035526;28;20021;-75
2021/07/24 08:30:29;;;;;;;2.97;1.67;;;;;;;;;;5053309;28;20028;-73
2021/07/24 08:32:55;;;;;;;2.78;1.52;;;;;;;;;;5053269;28;20104;-73
2021/07/24 08:35:21;;;;;;;4.53;1.80;;;;;;;;;;5053229;28;20029;-74
2021/07/24 08:37:47;;;;;;;4.05;1.70;;;;;;;;;;5053200;28;20108;-74
2021/07/24 08:40:14;;;;;;;4.45;2.03;;;;;;;;;;5053454;28;20060;-74
2021/07/24 08:42:41;;;;;;;4.68;1.88;;;;;;;;;;5053120;28;20075;-73
2021/07/24 08:45:08;;;;;;;5.57;2.13;;;;;;;;;;5053181;28;20032;-77
2021/07/24 08:47:34;;;;;;;5.13;2.25;;;;;;;;;;5053410;28;20564;-74
2021/07/24 08:50:00;;;;;;;6.85;2.20;;;;;;;;;;5053086;28;20021;-78
2021/07/24 08:52:27;;;;;;;5.68;1.98;;;;;;;;;;5053020;28;20029;-75
2021/07/24 08:54:53;;;;;;;5.75;2.22;;;;;;;;;;5053001;28;20071;-76
2021/07/24 08:57:24;;;;;;;4.70;2.22;;;;;;;;;;5053009;28;20040;-77
2021/07/24 08:59:50;;;;;;;5.68;2.47;;;;;;;;;;5053361;28;20028;-73
2021/07/24 09:02:20;;;;;;;8.07;3.03;;;;;;;;;;5052950;28;20029;-76
2021/07/24 09:04:48;;;;;;;7.70;2.70;;;;;;;;;;5053245;28;20021;-75
2021/07/24 09:07:15;;;;;;;7.57;2.60;;;;;;;;;;5053011;28;20151;-74
2021/07/24 09:09:43;;;;;;;6.43;2.85;;;;;;;;;;5053924;28;20515;-73
2021/07/24 09:12:10;;;;;;;7.30;2.60;;;;;;;;;;5057192;28;20021;-78
2021/07/24 09:14:37;;;;;;;5.10;2.38;;;;;;;;;;5057164;28;20437;-75
2021/07/24 09:17:04;;;;;;;6.68;2.55;;;;;;;;;;5056911;28;20030;-73
2021/07/24 09:19:32;;;;;;;4.55;2.40;;;;;;;;;;5057098;28;20029;-75
2021/07/24 09:21:58;;;;;;;8.75;2.70;;;;;;;;;;5057040;28;20025;-75
2021/07/24 09:24:26;;;;;;;5.40;2.47;;;;;;;;;;5056890;28;20094;-76
2021/07/24 09:26:53;;;;;;;4.63;2.67;;;;;;;;;;5057076;28;20025;-77
2021/07/24 09:29:20;;;;;;;5.60;2.90;;;;;;;;;;5057189;28;20112;-75
2021/07/24 09:31:47;;;;;;;5.80;2.63;;;;;;;;;;5056610;28;20056;-73
2021/07/24 09:34:14;;;;;;;5.07;2.50;;;;;;;;;;5056558;28;20086;-74
2021/07/24 09:36:41;;;;;;;11.05;2.90;;;;;;;;;;5056531;28;20017;-73
2021/07/24 09:39:17;;;;;;;6.72;2.35;;;;;;;;;;5056491;28;20029;-74
2021/07/24 09:41:44;;;;;;;5.25;2.40;;;;;;;;;;5056974;28;20032;-73
2021/07/24 09:44:10;;;;;;;4.60;2.28;;;;;;;;;;5056281;28;20504;-75
2021/07/24 09:46:36;;;;;;;4.85;2.33;;;;;;;;;;5056337;28;20028;-76
2021/07/24 09:49:11;;;;;;;7.10;2.70;;;;;;;;;;5056240;28;20026;-75
2021/07/24 09:51:38;;;;;;;4.63;2.60;;;;;;;;;;5038307;28;20397;-74
2021/07/24 09:54:05;;;;;;;8.32;2.63;;;;;;;;;;5056121;28;20040;-75
2021/07/24 09:56:41;;;;;;;5.57;2.72;;;;;;;;;;5056717;28;20108;-75
2021/07/24 09:59:22;;;;;;;6.80;2.60;;;;;;;;;;5056071;28;20033;-75
2021/07/24 10:02:07;;;;;;;6.85;2.97;;;;;;;;;;5056085;28;20068;-74
2021/07/24 10:04:37;;;;;;;7.55;3.17;;;;;;;;;;5056033;28;20029;-76
2021/07/24 10:07:04;;;;;;;9.82;2.70;;;;;;;;;;5055952;28;20021;-75
2021/07/24 10:09:37;;;;;;;8.00;2.63;;;;;;;;;;5056012;28;20045;-74
2021/07/24 10:12:06;;;;;;;7.22;2.72;;;;;;;;;;5055858;28;20025;-78
2021/07/24 10:14:32;;;;;;;6.53;3.08;;;;;;;;;;5055924;28;20025;-74
2021/07/24 10:17:01;;;;;;;5.82;2.50;;;;;;;;;;5055835;28;20493;-75
2021/07/24 10:19:29;;;;;;;7.10;2.65;;;;;;;;;;5055780;28;20029;-74
2021/07/24 10:21:57;;;;;;;6.57;3.30;;;;;;;;;;5054578;28;20488;-75
2021/07/24 10:24:23;;;;;;;5.63;2.90;;;;;;;;;;5055597;28;20505;-73
2021/07/24 10:26:57;;;;;;;7.68;3.13;;;;;;;;;;5055563;28;20048;-74
2021/07/24 10:29:28;;;;;;;4.95;2.42;;;;;;;;;;5056056;28;20029;-76
2021/07/24 10:32:07;;;;;;;6.10;2.38;;;;;;;;;;5055487;28;20064;-76
2021/07/24 10:34:33;;;;;;;8.43;3.30;;;;;;;;;;5055473;28;20432;-76
2021/07/24 10:37:00;;;;;;;7.00;2.55;;;;;;;;;;5055661;28;20358;-77
2021/07/24 10:39:26;;;;;;;5.85;2.95;;;;;;;;;;5055377;28;20036;-77
2021/07/24 10:41:52;;;;;;;8.75;2.72;;;;;;;;;;5055321;28;20021;-77
2021/07/24 10:44:38;;;;;;;8.77;3.40;;;;;;;;;;5055188;28;20397;-73
2021/07/24 10:47:04;;;;;;;5.07;2.88;;;;;;;;;;5055493;28;20075;-75
2021/07/24 10:49:33;;;;;;;12.32;3.40;;;;;;;;;;5055145;28;20025;-74
2021/07/24 10:52:00;;;;;;;9.20;3.53;;;;;;;;;;5037229;28;20017;-77
2021/07/24 10:54:26;;;;;;;5.85;3.42;;;;;;;;;;5054992;28;20021;-74
2021/07/24 10:56:53;;;;;;;9.02;3.78;;;;;;;;;;5055011;28;20025;-74
2021/07/24 10:59:31;;;;;;;8.48;3.35;;;;;;;;;;5054989;28;20025;-76
2021/07/24 11:01:57;;;;;;;6.38;3.55;;;;;;;;;;5054915;28;20021;-78
2021/07/24 11:04:38;;;;;;;8.75;3.42;;;;;;;;;;5054817;28;20032;-75
2021/07/24 11:07:20;;;;;;;7.45;3.55;;;;;;;;;;5054868;28;20028;-73
2021/07/24 11:09:47;;;;;;;9.65;3.55;;;;;;;;;;5054903;28;20052;-73
2021/07/24 11:12:17;;;;;;;8.48;3.03;;;;;;;;;;5054712;28;20143;-72
2021/07/24 11:14:45;;;;;;;7.22;2.92;;;;;;;;;;5054741;28;20032;-73
2021/07/24 11:17:12;;;;;;;7.05;2.30;;;;;;;;;;5055220;28;20017;-75
2021/07/24 11:19:38;;;;;;;6.47;2.40;;;;;;;;;;5054621;28;20033;-77
2021/07/24 11:22:10;;;;;;;3.83;2.10;;;;;;;;;;5054430;28;20163;-76
2021/07/24 11:24:37;;;;;;;7.18;2.78;;;;;;;;;;5036587;28;20025;-75
2021/07/24 11:27:03;;;;;;;4.68;2.17;;;;;;;;;;5054442;28;20048;-77
2021/07/24 11:29:29;;;;;;;5.05;2.22;;;;;;;;;;5036521;28;20029;-75
2021/07/24 11:31:55;;;;;;;4.13;1.92;;;;;;;;;;5054168;28;20033;-76
2021/07/24 11:34:22;;;;;;;6.55;2.22;;;;;;;;;;5054170;28;20082;-75
2021/07/24 11:36:51;;;;;;;7.00;2.35;;;;;;;;;;5054796;28;20025;-78
2021/07/24 11:39:23;;;;;;;2.83;2.20;;;;;;;;;;5054197;28;20029;-73
2021/07/24 11:41:49;;;;;;;6.05;2.30;;;;;;;;;;5054762;28;20032;-77
2021/07/24 11:44:25;;;;;;;7.55;2.47;;;;;;;;;;5054587;28;20033;-74
2021/07/24 11:46:58;;;;;;;7.25;2.45;;;;;;;;;;5054081;28;20032;-75
2021/07/24 11:49:25;;;;;;;3.70;2.17;;;;;;;;;;5054005;28;20162;-73
2021/07/24 11:51:51;;;;;;;2.90;2.00;;;;;;;;;;5053958;28;20028;-76
2021/07/24 11:54:27;;;;;;;5.38;2.42;;;;;;;;;;5053852;28;20036;-73
2021/07/24 11:56:53;;;;;;;5.07;2.30;;;;;;;;;;5054187;28;20024;-75
2021/07/24 11:59:19;;;;;;;5.80;2.10;;;;;;;;;;5053773;28;20393;-75
2021/07/24 12:01:45;;;;;;;4.45;2.10;;;;;;;;;;5054294;28;20032;-77
2021/07/24 12:04:12;;;;;;;2.70;1.95;;;;;;;;;;5035781;28;20025;-78
2021/07/24 12:06:40;;;;;;;3.80;2.22;;;;;;;;;;5053752;28;20127;-78
2021/07/24 12:09:08;;;;;;;3.65;2.40;;;;;;;;;;5054042;28;20551;-76
2021/07/24 12:11:34;;;;;;;3.95;2.38;;;;;;;;;;5053924;28;20135;-73
2021/07/24 12:14:04;;;;;;;3.50;2.30;;;;;;;;;;5053895;28;20036;-75
2021/07/24 12:16:35;;;;;;;4.15;2.38;;;;;;;;;;5054105;28;20029;-74
2021/07/24 12:19:10;;;;;;;3.25;1.92;;;;;;;;;;5035351;28;20492;-75
2021/07/24 12:21:36;;;;;;;5.70;2.58;;;;;;;;;;5053772;28;20033;-75
2021/07/24 12:24:04;;;;;;;6.45;2.60;;;;;;;;;;5053361;28;20025;-76
2021/07/24 12:26:34;;;;;;;7.10;2.67;;;;;;;;;;5053662;28;20047;-75
2021/07/24 12:29:20;;;;;;;6.45;2.60;;;;;;;;;;5053708;28;20025;-75
2021/07/24 12:31:53;;;;;;;6.28;2.90;;;;;;;;;;5053474;28;20477;-72
2021/07/24 12:34:23;;;;;;;4.03;2.22;;;;;;;;;;5053298;28;20028;-73
2021/07/24 12:36:51;;;;;;;5.28;2.22;;;;;;;;;;5053296;28;20056;-74
2021/07/24 12:39:18;;;;;;;5.53;2.30;;;;;;;;;;5053231;28;20025;-75
2021/07/24 12:41:44;;;;;;;4.13;2.28;;;;;;;;;;5053189;28;20036;-75
2021/07/24 12:44:10;;;;;;;5.00;2.40;;;;;;;;;;5034630;28;20025;-73
2021/07/24 12:46:37;;;;;;;5.00;2.25;;;;;;;;;;5053146;28;20027;-74
2021/07/24 12:49:03;;;;;;;3.72;2.40;;;;;;;;;;5053384;28;20024;-73
2021/07/24 12:51:41;;;;;;;6.00;2.50;;;;;;;;;;5053105;28;20104;-74
2021/07/24 12:54:12;;;;;;;5.40;2.83;;;;;;;;;;5053663;28;20096;-75
2021/07/24 12:56:39;;;;;;;7.30;3.05;;;;;;;;;;5053278;28;20036;-73
2021/07/24 12:59:06;;;;;;;4.82;2.70;;;;;;;;;;5053295;28;20035;-75
2021/07/24 13:01:32;;;;;;;5.93;2.70;;;;;;;;;;5052999;28;20036;-77
2021/07/24 13:03:58;;;;;;;6.90;3.55;;;;;;;;;;5053197;28;20028;-76
2021/07/24 13:06:28;;;;;;;6.45;2.80;;;;;;;;;;5053229;28;20158;-76
2021/07/24 13:08:58;;;;;;;5.95;2.97;;;;;;;;;;5053054;28;20091;-75
2021/07/24 13:11:24;;;;;;;5.53;3.08;;;;;;;;;;5052926;28;20025;-75
2021/07/24 13:13:50;;;;;;;5.97;3.13;;;;;;;;;;5053434;28;20053;-76
2021/07/24 13:16:19;;;;;;;5.97;3.38;;;;;;;;;;5053151;28;20466;-77
2021/07/24 13:18:45;;;;;;;7.53;3.20;;;;;;;;;;5052872;28;20029;-76
2021/07/24 13:21:11;;;;;;;8.13;3.47;;;;;;;;;;5053099;28;20075;-74
2021/07/24 13:23:37;;;;;;;6.55;3.13;;;;;;;;;;5052746;28;20017;-76
2021/07/24 13:28:48;;;;;;;6.72;3.40;;;;;;;;;;5053057;28;20029;-75
2021/07/24 13:31:14;;;;;;;7.07;3.08;;;;;;;;;;5052716;28;20025;-74
2021/07/24 13:33:40;;;;;;;6.85;3.00;;;;;;;;;;5052980;28;20053;-78
2021/07/24 13:36:06;;;;;;;7.43;3.50;;;;;;;;;;5052654;28;20029;-75
2021/07/24 13:38:33;;;;;;;7.38;3.40;;;;;;;;;;5052952;28;20166;-77
2021/07/24 13:40:59;;;;;;;7.30;3.70;;;;;;;;;;5052911;28;20029;-79
2021/07/24 13:43:25;;;;;;;6.25;3.50;;;;;;;;;;5052575;28;20025;-75
2021/07/24 13:45:51;;;;;;;8.25;3.58;;;;;;;;;;5052852;28;20087;-78
2021/07/24 13:48:17;;;;;;;6.18;3.47;;;;;;;;;;5052555;28;20049;-78
2021/07/24 13:50:43;;;;;;;7.25;3.65;;;;;;;;;;5052577;28;20024;-76
2021/07/24 13:53:09;;;;;;;7.55;3.65;;;;;;;;;;5052516;28;20398;-77
2021/07/24 13:55:38;;;;;;;7.60;4.00;;;;;;;;;;5053320;28;20111;-75
2021/07/24 13:58:04;;;;;;;9.85;3.90;;;;;;;;;;5056277;28;20108;-76
2021/07/24 14:00:30;;;;;;;8.15;3.58;;;;;;;;;;5056115;28;20071;-75
2021/07/24 14:02:56;;;;;;;9.98;3.80;;;;;;;;;;5055999;28;20025;-76
2021/07/24 14:05:22;;;;;;;6.93;4.20;;;;;;;;;;5056005;28;20474;-78
2021/07/24 14:07:48;;;;;;;8.18;4.22;;;;;;;;;;5055946;28;20100;-76
2021/07/24 14:10:14;;;;;;;8.10;4.20;;;;;;;;;;5055610;28;20045;-73
2021/07/24 14:12:40;;;;;;;8.70;4.20;;;;;;;;;;5055916;28;20021;-77
2021/07/24 14:15:06;;;;;;;8.98;4.15;;;;;;;;;;5055834;28;20040;-75
2021/07/24 14:17:32;;;;;;;10.98;4.70;;;;;;;;;;5056359;28;20044;-74
2021/07/24 14:19:58;;;;;;;9.07;4.65;;;;;;;;;;5055775;28;20032;-73
2021/07/24 14:22:24;;;;;;;10.40;4.88;;;;;;;;;;5055910;28;20078;-74
2021/07/24 14:24:50;;;;;;;12.30;5.18;;;;;;;;;;5055639;28;20083;-77
2021/07/24 14:27:16;;;;;;;11.80;5.70;;;;;;;;;;5055872;28;20017;-76
2021/07/24 14:29:42;;;;;;;9.43;5.50;;;;;;;;;;5055593;28;20029;-77
2021/07/24 14:32:08;;;;;;;9.07;5.65;;;;;;;;;;5055502;28;20100;-76
2021/07/24 14:34:35;;;;;;;12.55;5.53;;;;;;;;;;5055712;28;20029;-79
2021/07/24 14:37:01;;;;;;;11.05;5.35;;;;;;;;;;5055665;28;20100;-75
2021/07/24 14:39:27;;;;;;;10.80;6.90;;;;;;;;;;5055397;28;20104;-74
2021/07/24 14:41:53;;;;;;;9.80;5.30;;;;;;;;;;5055342;28;20107;-76
2021/07/24 14:44:20;;;;;;;10.40;5.72;;;;;;;;;;5055207;28;20039;-75
2021/07/24 14:46:46;;;;;;;11.90;5.88;;;;;;;;;;5055286;28;20108;-77
2021/07/24 14:49:12;;;;;;;11.68;5.82;;;;;;;;;;5055459;28;20063;-75